Time;durP1;ratioP1;P1;durP2;ratioP2;P2;SDS_P1;SDS_P2;PMS_P1;PMS_P2;Temp;Humidity;BMP_temperature;BMP_pressure;BME280_temperature;BME280_humidity;BME280_pressure;Samples;Min_cycle;Max_cycle;Signal;HPM_P1;HPM_P2
2022/04/01 00:01:51;;;;;;;;;;;0.50;99.90;;;;;;2190748;65;20058;-77
2022/04/01 00:05:13;;;;;;;;;;;0.50;99.90;;;;;;2192463;65;20073;-78
2022/04/01 00:07:38;;;;;;;;;;;0.70;99.90;;;;;;2187916;65;20050;-78
2022/04/01 00:10:14;;;;;;;;;;;0.50;99.90;;;;;;2199230;65;20204;-77
2022/04/01 00:13:04;;;;;;;;;;;1.80;99.90;;;;;;2197270;65;20542;-78
2022/04/01 00:15:40;;;;;;;;;;;0.60;99.90;;;;;;2195830;65;20224;-77
2022/04/01 00:18:33;;;;;;;;;;;0.60;99.90;;;;;;2179366;65;20632;-77
2022/04/01 00:21:11;;;;;;;;;;;0.60;99.90;;;;;;2185131;65;20273;-78
2022/04/01 00:24:01;;;;;;;;;;;0.90;99.90;;;;;;2162877;66;20166;-78
2022/04/01 00:26:40;;;;;;;;;;;0.60;99.90;;;;;;2176494;65;20069;-77
2022/04/01 00:29:22;;;;;;;;;;;0.60;99.90;;;;;;2175706;65;20065;-77
2022/04/01 00:32:04;;;;;;;;;;;0.60;99.90;;;;;;2170773;65;20584;-77
2022/04/01 00:34:47;;;;;;;;;;;0.70;99.90;;;;;;2170145;65;20299;-77
2022/04/01 00:37:29;;;;;;;;;;;0.70;99.90;;;;;;2162608;66;20093;-77
2022/04/01 00:40:14;;;;;;;;;;;0.70;99.90;;;;;;2155577;66;20210;-78
2022/04/01 00:42:58;;;;;;;;;;;0.70;99.90;;;;;;2153906;66;20134;-78
2022/04/01 00:45:40;;;;;;;;;;;0.70;99.90;;;;;;2155121;66;20258;-77
2022/04/01 00:48:22;;;;;;;;;;;0.50;99.90;;;;;;2155530;66;20071;-77
2022/04/01 00:51:14;;;;;;;;;;;0.70;99.90;;;;;;2153399;66;20325;-78
2022/04/01 00:53:51;;;;;;;;;;;0.70;99.90;;;;;;2155453;66;20127;-78
2022/04/01 00:56:23;;;;;;;;;;;0.70;99.90;;;;;;2148152;66;20428;-78
2022/04/01 00:58:59;;;;;;;;;;;0.70;99.90;;;;;;2152040;66;20101;-78
2022/04/01 01:01:35;;;;;;;;;;;0.70;99.90;;;;;;2155033;66;20210;-78
2022/04/01 01:04:15;;;;;;;;;;;0.70;99.90;;;;;;2150318;66;20115;-78
2022/04/01 01:06:54;;;;;;;;;;;0.70;99.90;;;;;;2154974;66;20121;-77
2022/04/01 01:09:32;;;;;;;;;;;1.20;99.90;;;;;;2166880;65;20047;-78
2022/04/01 01:12:13;;;;;;;;;;;0.70;99.90;;;;;;2180937;65;20168;-78
2022/04/01 01:14:51;;;;;;;;;;;0.70;99.90;;;;;;2185558;65;20068;-78
2022/04/01 01:17:30;;;;;;;;;;;0.70;99.90;;;;;;2194126;65;20456;-79
2022/04/01 01:20:20;;;;;;;;;;;0.70;99.90;;;;;;2189908;65;20229;-78
2022/04/01 01:22:57;;;;;;;;;;;0.70;99.90;;;;;;2199260;65;20152;-79
2022/04/01 01:25:38;;;;;;;;;;;0.80;99.90;;;;;;2199762;65;20242;-79
2022/04/01 01:28:09;;;;;;;;;;;0.80;99.90;;;;;;2188017;65;20058;-78
2022/04/01 01:30:48;;;;;;;;;;;0.80;99.90;;;;;;2196475;65;20050;-78
2022/04/01 01:33:39;;;;;;;;;;;0.80;99.90;;;;;;2183763;65;20532;-79
2022/04/01 01:36:30;;;;;;;;;;;0.80;99.90;;;;;;2169615;65;20145;-79
2022/04/01 01:39:06;;;;;;;;;;;0.90;99.90;;;;;;2174597;65;20112;-79
2022/04/01 01:41:42;;;;;;;;;;;0.90;99.90;;;;;;2170513;65;20180;-78
2022/04/01 01:44:14;;;;;;;;;;;0.90;99.90;;;;;;2174699;65;20067;-77
2022/04/01 01:46:53;;;;;;;;;;;0.90;99.90;;;;;;2182707;65;20067;-78
2022/04/01 01:49:34;;;;;;;;;;;1.00;99.90;;;;;;2178269;65;20150;-79
2022/04/01 01:55:15;;;;;;;;;;;0.90;99.90;;;;;;2178746;65;20184;-78
2022/04/01 01:57:58;;;;;;;;;;;1.00;99.90;;;;;;2180657;65;20161;-78
2022/04/01 02:00:39;;;;;;;;;;;1.00;99.90;;;;;;2177517;65;20314;-79
2022/04/01 02:03:21;;;;;;;;;;;1.00;99.90;;;;;;2165656;66;20044;-78
2022/04/01 02:06:00;;;;;;;;;;;1.10;99.90;;;;;;2167662;66;20116;-78
2022/04/01 02:08:34;;;;;;;;;;;1.70;99.90;;;;;;2170410;66;20133;-78
2022/04/01 02:11:10;;;;;;;;;;;1.30;99.90;;;;;;2163244;66;20602;-78
2022/04/01 02:14:01;;;;;;;;;;;1.10;99.90;;;;;;2162452;66;20069;-78
2022/04/01 02:16:43;;;;;;;;;;;1.20;99.90;;;;;;2163639;66;20153;-78
2022/04/01 02:19:33;;;;;;;;;;;1.10;99.90;;;;;;2167782;66;20057;-77
2022/04/01 02:22:12;;;;;;;;;;;1.20;99.90;;;;;;1926609;66;15798302;-78
2022/04/01 02:24:51;;;;;;;;;;;1.20;99.90;;;;;;2151636;66;20242;-77
2022/04/01 02:27:31;;;;;;;;;;;1.20;99.90;;;;;;2150732;66;20511;-77
2022/04/01 02:30:11;;;;;;;;;;;1.20;99.90;;;;;;2173978;65;20150;-76
2022/04/01 02:32:47;;;;;;;;;;;1.20;99.90;;;;;;2195409;65;20196;-79
2022/04/01 02:35:23;;;;;;;;;;;1.20;99.90;;;;;;2208473;64;20126;-79
2022/04/01 02:37:55;;;;;;;;;;;1.20;99.90;;;;;;2206211;65;20118;-79
2022/04/01 02:40:34;;;;;;;;;;;1.20;99.90;;;;;;2212445;64;20126;-78
2022/04/01 02:43:13;;;;;;;;;;;1.20;99.90;;;;;;2214464;64;20267;-80
2022/04/01 02:45:50;;;;;;;;;;;1.20;99.90;;;;;;2211071;64;20129;-79
2022/04/01 02:48:27;;;;;;;;;;;1.20;99.90;;;;;;2212188;64;20425;-78
2022/04/01 02:51:07;;;;;;;;;;;1.20;99.90;;;;;;2206708;64;20134;-78
2022/04/01 02:53:43;;;;;;;;;;;1.20;99.90;;;;;;2211160;65;20485;-79
2022/04/01 02:56:19;;;;;;;;;;;1.20;99.90;;;;;;2208986;64;20417;-78
2022/04/01 02:58:49;;;;;;;;;;;1.20;99.90;;;;;;2201694;65;20064;-78
2022/04/01 03:01:25;;;;;;;;;;;1.20;99.90;;;;;;2213201;64;20574;-78
2022/04/01 03:04:15;;;;;;;;;;;1.10;99.90;;;;;;2202878;65;20285;-79
2022/04/01 03:06:57;;;;;;;;;;;1.20;99.90;;;;;;2197076;65;20037;-79
2022/04/01 03:09:38;;;;;;;;;;;1.20;99.90;;;;;;2183073;65;20131;-79
2022/04/01 03:12:21;;;;;;;;;;;1.10;99.90;;;;;;2173807;65;20720;-78
2022/04/01 03:15:06;;;;;;;;;;;1.10;99.90;;;;;;2163001;66;20573;-79
2022/04/01 03:18:01;;;;;;;;;;;1.20;99.90;;;;;;2180952;65;20251;-79
2022/04/01 03:20:45;;;;;;;;;;;1.20;99.90;;;;;;2167636;66;20725;-79
2022/04/01 03:23:47;;;;;;;;;;;1.20;99.90;;;;;;2165590;66;20139;-79
2022/04/01 03:26:29;;;;;;;;;;;1.20;99.90;;;;;;2165354;66;20144;-78
2022/04/01 03:29:10;;;;;;;;;;;1.20;99.90;;;;;;2162586;66;20049;-78
2022/04/01 03:31:53;;;;;;;;;;;1.20;99.90;;;;;;2151896;66;20557;-78
2022/04/01 03:34:35;;;;;;;;;;;1.20;99.90;;;;;;2139995;67;20723;-79
2022/04/01 03:37:16;;;;;;;;;;;1.20;99.90;;;;;;2138339;67;20255;-78
2022/04/01 03:40:00;;;;;;;;;;;1.20;99.90;;;;;;2132753;67;20157;-78
2022/04/01 03:42:42;;;;;;;;;;;1.20;99.90;;;;;;2140409;67;20059;-78
2022/04/01 03:45:26;;;;;;;;;;;1.20;99.90;;;;;;2145034;66;20062;-78
2022/04/01 03:48:17;;;;;;;;;;;1.20;99.90;;;;;;2141091;66;20234;-78
2022/04/01 03:50:58;;;;;;;;;;;1.20;99.90;;;;;;2147368;66;20222;-78
2022/04/01 03:53:41;;;;;;;;;;;1.70;99.90;;;;;;2138462;66;20199;-78
2022/04/01 03:56:18;;;;;;;;;;;1.20;99.90;;;;;;2139117;66;20091;-78
2022/04/01 03:58:59;;;;;;;;;;;1.30;99.90;;;;;;2143124;66;20094;-77
2022/04/01 04:01:52;;;;;;;;;;;1.30;99.90;;;;;;2126315;67;20087;-79
2022/04/01 04:04:29;;;;;;;;;;;1.30;99.90;;;;;;2131465;67;20131;-78
2022/04/01 04:07:21;;;;;;;;;;;1.30;99.90;;;;;;2135749;67;20072;-78
2022/04/01 04:09:59;;;;;;;;;;;1.40;99.90;;;;;;2133928;66;20165;-78
2022/04/01 04:12:36;;;;;;;;;;;1.40;99.90;;;;;;2139685;66;20166;-78
2022/04/01 04:15:12;;;;;;;;;;;1.40;99.90;;;;;;2154179;66;20071;-77
2022/04/01 04:17:53;;;;;;;;;;;1.40;99.90;;;;;;2162501;66;20077;-78
2022/04/01 04:20:36;;;;;;;;;;;1.70;99.90;;;;;;2176140;65;20064;-78
2022/04/01 04:23:27;;;;;;;;;;;1.40;99.90;;;;;;2163760;66;20494;-77
2022/04/01 04:26:12;;;;;;;;;;;1.50;99.90;;;;;;2190514;65;20093;-78
2022/04/01 04:28:49;;;;;;;;;;;1.40;99.90;;;;;;2199594;65;20273;-78
2022/04/01 04:31:29;;;;;;;;;;;1.50;99.90;;;;;;2194814;65;20275;-79
2022/04/01 04:34:09;;;;;;;;;;;1.50;99.90;;;;;;2193878;65;20064;-78
2022/04/01 04:36:49;;;;;;;;;;;1.50;99.90;;;;;;2195739;65;20103;-78
2022/04/01 04:39:45;;;;;;;;;;;1.50;99.90;;;;;;2196124;65;20179;-80
2022/04/01 04:42:48;;;;;;;;;;;1.40;99.90;;;;;;2185192;65;20589;-79
2022/04/01 04:45:27;;;;;;;;;;;1.50;99.90;;;;;;2180119;65;20123;-79
2022/04/01 04:48:07;;;;;;;;;;;1.50;99.90;;;;;;2193249;65;20079;-79
2022/04/01 04:50:48;;;;;;;;;;;1.50;99.90;;;;;;2207195;65;20096;-78
2022/04/01 04:53:34;;;;;;;;;;;1.50;99.90;;;;;;2186975;65;20051;-80
2022/04/01 04:56:17;;;;;;;;;;;1.70;99.90;;;;;;2181657;65;20047;-79
2022/04/01 04:58:59;;;;;;;;;;;1.50;99.90;;;;;;2164179;66;20481;-78
2022/04/01 05:01:49;;;;;;;;;;;1.50;99.90;;;;;;2177665;65;20670;-79
2022/04/01 05:04:46;;;;;;;;;;;1.60;99.90;;;;;;2170503;66;20236;-80
2022/04/01 05:07:42;;;;;;;;;;;1.60;99.90;;;;;;2150987;66;20196;-79
2022/04/01 05:10:28;;;;;;;;;;;1.60;99.90;;;;;;2146272;66;20616;-80
2022/04/01 05:13:23;;;;;;;;;;;1.60;99.90;;;;;;2147871;66;20047;-79
2022/04/01 05:16:07;;;;;;;;;;;1.60;99.90;;;;;;2140737;67;20083;-80
2022/04/01 05:18:53;;;;;;;;;;;1.70;99.90;;;;;;2128389;67;20088;-79
2022/04/01 05:21:57;;;;;;;;;;;1.70;99.90;;;;;;2126977;67;20064;-80
2022/04/01 05:24:51;;;;;;;;;;;1.70;99.90;;;;;;2122569;67;20128;-78
2022/04/01 05:27:41;;;;;;;;;;;1.00;99.90;;;;;;2130481;67;20085;-78
2022/04/01 05:30:28;;;;;;;;;;;1.80;99.90;;;;;;2126321;67;20523;-78
2022/04/01 05:33:10;;;;;;;;;;;1.80;99.90;;;;;;2113421;67;20218;-79
2022/04/01 05:35:53;;;;;;;;;;;1.80;99.90;;;;;;2106491;68;20138;-79
2022/04/01 05:38:36;;;;;;;;;;;1.80;99.90;;;;;;2113609;67;20074;-78
2022/04/01 05:41:21;;;;;;;;;;;1.80;99.90;;;;;;2112793;67;20237;-79
2022/04/01 05:44:06;;;;;;;;;;;1.90;99.90;;;;;;2113794;67;20195;-78
2022/04/01 05:46:53;;;;;;;;;;;2.30;99.90;;;;;;2115107;67;20292;-79
2022/04/01 05:49:45;;;;;;;;;;;1.90;99.90;;;;;;2123669;67;20290;-79
2022/04/01 05:52:30;;;;;;;;;;;1.90;99.90;;;;;;2115439;67;20079;-80
2022/04/01 05:55:14;;;;;;;;;;;2.00;99.90;;;;;;2114167;67;20134;-77
2022/04/01 05:57:58;;;;;;;;;;;2.00;99.90;;;;;;2116455;67;20181;-79
2022/04/01 06:01:03;;;;;;;;;;;2.00;99.90;;;;;;2107542;68;20196;-78
2022/04/01 06:03:49;;;;;;;;;;;2.00;99.90;;;;;;2106497;68;20133;-80
2022/04/01 06:06:39;;;;;;;;;;;2.00;99.90;;;;;;2105802;67;20054;-79
2022/04/01 06:09:26;;;;;;;;;;;2.10;99.90;;;;;;2100963;68;20099;-78
2022/04/01 06:12:16;;;;;;;;;;;2.10;99.90;;;;;;2098088;68;20260;-81
2022/04/01 06:15:03;;;;;;;;;;;2.10;99.90;;;;;;2101849;68;20059;-79
2022/04/01 06:17:47;;;;;;;;;;;2.20;99.90;;;;;;2109572;67;20533;-79
2022/04/01 06:20:34;;;;;;;;;;;2.20;99.90;;;;;;2115799;67;20198;-80
2022/04/01 06:23:21;;;;;;;;;;;2.20;99.90;;;;;;2126837;67;20074;-79
2022/04/01 06:26:07;;;;;;;;;;;2.30;99.90;;;;;;2126346;67;20049;-79
2022/04/01 06:28:55;;;;;;;;;;;2.30;99.90;;;;;;2136313;67;20059;-78
2022/04/01 06:31:36;;;;;;;;;;;2.30;99.90;;;;;;2133088;67;20077;-80
2022/04/01 06:34:29;;;;;;;;;;;2.30;99.90;;;;;;2130927;67;20111;-80
2022/04/01 06:37:04;;;;;;;;;;;2.40;99.90;;;;;;2133319;67;20060;-79
2022/04/01 06:39:46;;;;;;;;;;;2.50;99.90;;;;;;2134164;66;20131;-80
2022/04/01 06:42:22;;;;;;;;;;;2.60;99.90;;;;;;2140752;66;20059;-80
2022/04/01 06:45:15;;;;;;;;;;;2.60;99.90;;;;;;2148585;66;20496;-79
2022/04/01 06:47:52;;;;;;;;;;;2.60;99.90;;;;;;2170922;66;20451;-79
2022/04/01 06:50:31;;;;;;;;;;;2.70;99.90;;;;;;2163342;66;20057;-78
2022/04/01 06:53:08;;;;;;;;;;;2.70;99.90;;;;;;2161793;66;20572;-79
2022/04/01 06:56:03;;;;;;;;;;;2.70;99.90;;;;;;2149411;66;20091;-79
2022/04/01 06:58:48;;;;;;;;;;;2.80;99.90;;;;;;2156263;66;20045;-82
2022/04/01 07:01:25;;;;;;;;;;;2.90;99.90;;;;;;2173154;65;20064;-78
2022/04/01 07:04:01;;;;;;;;;;;3.00;99.90;;;;;;2192234;65;20046;-77
2022/04/01 07:06:37;;;;;;;;;;;3.00;99.90;;;;;;2191575;65;20534;-78
2022/04/01 07:09:27;;;;;;;;;;;3.00;99.90;;;;;;2191577;65;20068;-78
2022/04/01 07:12:05;;;;;;;;;;;3.00;99.90;;;;;;2191226;65;20109;-80
2022/04/01 07:14:42;;;;;;;;;;;3.10;99.90;;;;;;2209129;64;20130;-82
2022/04/01 07:17:21;;;;;;;;;;;3.10;99.90;;;;;;2227791;64;20124;-78
2022/04/01 07:19:58;;;;;;;;;;;3.70;99.90;;;;;;2225643;64;20586;-79
2022/04/01 07:22:39;;;;;;;;;;;3.20;99.90;;;;;;2222634;64;20483;-80
2022/04/01 07:25:18;;;;;;;;;;;3.20;99.90;;;;;;2219077;64;20074;-78
2022/04/01 07:27:56;;;;;;;;;;;3.30;99.90;;;;;;2221410;64;20180;-78
2022/04/01 07:30:38;;;;;;;;;;;3.30;99.90;;;;;;2212810;64;20510;-81
2022/04/01 07:33:15;;;;;;;;;;;3.30;99.90;;;;;;2222055;64;20084;-82
2022/04/01 07:35:56;;;;;;;;;;;3.90;99.90;;;;;;2206843;65;20141;-80
2022/04/01 07:38:35;;;;;;;;;;;3.40;99.90;;;;;;2206868;65;20122;-82
2022/04/01 07:41:11;;;;;;;;;;;3.40;99.90;;;;;;2205352;65;20137;-81
2022/04/01 07:43:39;;;;;;;;;;;3.40;99.90;;;;;;2199382;65;20046;-81
2022/04/01 07:46:14;;;;;;;;;;;3.30;99.90;;;;;;2205675;65;20220;-81
2022/04/01 07:48:52;;;;;;;;;;;3.40;99.90;;;;;;2210001;65;20093;-78
2022/04/01 07:51:22;;;;;;;;;;;3.40;99.90;;;;;;2209700;65;20049;-82
2022/04/01 07:53:58;;;;;;;;;;;3.40;99.90;;;;;;2207349;65;20159;-82
2022/04/01 07:56:36;;;;;;;;;;;3.40;99.90;;;;;;2206877;65;20067;-80
2022/04/01 07:59:19;;;;;;;;;;;3.40;99.90;;;;;;2198323;65;20049;-82
2022/04/01 08:01:59;;;;;;;;;;;3.50;99.90;;;;;;2199515;65;20119;-80
2022/04/01 08:04:39;;;;;;;;;;;3.50;99.90;;;;;;2199060;65;20172;-80
2022/04/01 08:07:13;;;;;;;;;;;3.60;99.90;;;;;;2206179;64;20064;-80
2022/04/01 08:09:52;;;;;;;;;;;3.90;99.90;;;;;;2215642;64;20052;-81
2022/04/01 08:12:24;;;;;;;;;;;3.60;99.90;;;;;;2219479;64;20136;-81
2022/04/01 08:15:03;;;;;;;;;;;3.60;99.90;;;;;;2217503;64;20315;-82
2022/04/01 08:17:45;;;;;;;;;;;3.50;99.90;;;;;;2217620;64;20082;-81
2022/04/01 08:20:21;;;;;;;;;;;3.50;99.90;;;;;;2216977;64;20239;-78
2022/04/01 08:22:51;;;;;;;;;;;3.60;99.90;;;;;;2211813;64;20109;-81
2022/04/01 08:25:27;;;;;;;;;;;3.60;99.90;;;;;;2220832;64;20072;-80
2022/04/01 08:28:04;;;;;;;;;;;3.70;99.90;;;;;;2216556;64;20120;-79
2022/04/01 08:30:46;;;;;;;;;;;3.80;99.90;;;;;;2218168;64;20086;-80
2022/04/01 08:33:20;;;;;;;;;;;3.90;99.90;;;;;;2210840;64;20064;-80
2022/04/01 08:36:12;;;;;;;;;;;4.00;99.90;;;;;;2203055;65;20081;-82
2022/04/01 08:38:55;;;;;;;;;;;4.20;99.90;;;;;;2195820;65;20345;-78
2022/04/01 08:41:39;;;;;;;;;;;4.20;99.90;;;;;;2188001;65;20055;-81
2022/04/01 08:44:18;;;;;;;;;;;4.20;99.90;;;;;;2185769;65;20197;-77
2022/04/01 08:46:57;;;;;;;;;;;4.30;99.90;;;;;;2187260;65;20062;-79
2022/04/01 08:49:33;;;;;;;;;;;4.40;99.90;;;;;;2185710;65;20193;-79
2022/04/01 08:52:10;;;;;;;;;;;4.50;99.90;;;;;;2183106;65;20208;-79
2022/04/01 08:54:41;;;;;;;;;;;4.50;99.90;;;;;;2178854;65;20478;-78
2022/04/01 08:57:36;;;;;;;;;;;4.60;99.90;;;;;;2171007;65;20154;-77
2022/04/01 09:00:15;;;;;;;;;;;4.60;99.90;;;;;;2171251;65;20578;-78
2022/04/01 09:03:00;;;;;;;;;;;4.60;99.90;;;;;;2176884;65;20178;-81
2022/04/01 09:05:40;;;;;;;;;;;4.60;99.90;;;;;;2177545;65;20073;-79
2022/04/01 09:08:41;;;;;;;;;;;4.70;99.90;;;;;;2176877;65;20469;-79
2022/04/01 09:11:32;;;;;;;;;;;4.80;99.90;;;;;;2177221;65;20093;-80
2022/04/01 09:14:20;;;;;;;;;;;5.20;99.90;;;;;;2177283;65;20084;-80
2022/04/01 09:16:56;;;;;;;;;;;4.90;99.90;;;;;;2189611;65;20091;-80
2022/04/01 09:19:46;;;;;;;;;;;4.90;99.90;;;;;;2186363;65;20143;-76
2022/04/01 09:22:18;;;;;;;;;;;5.00;99.90;;;;;;2187389;65;20080;-81
2022/04/01 09:25:04;;;;;;;;;;;5.10;99.90;;;;;;2188938;65;20123;-80
2022/04/01 09:27:54;;;;;;;;;;;5.20;99.90;;;;;;2180593;65;20122;-80
2022/04/01 09:30:31;;;;;;;;;;;5.50;99.90;;;;;;2180455;65;20063;-79
2022/04/01 09:33:08;;;;;;;;;;;5.70;99.90;;;;;;2180862;65;20056;-79
2022/04/01 09:35:43;;;;;;;;;;;5.80;99.90;;;;;;2181302;65;20059;-80
2022/04/01 09:38:34;;;;;;;;;;;5.90;99.90;;;;;;2157788;66;20189;-81
2022/04/01 09:41:11;;;;;;;;;;;6.10;99.90;;;;;;2164449;65;20222;-78
2022/04/01 09:43:50;;;;;;;;;;;6.00;99.90;;;;;;2178186;65;20577;-78
2022/04/01 09:46:39;;;;;;;;;;;6.00;99.90;;;;;;2167332;66;20137;-80
2022/04/01 09:49:29;;;;;;;;;;;6.00;99.90;;;;;;2163626;66;20564;-80
2022/04/01 09:52:13;;;;;;;;;;;6.10;99.90;;;;;;2157053;66;20228;-80
2022/04/01 09:54:55;;;;;;;;;;;6.30;99.80;;;;;;2144553;67;20180;-83
2022/04/01 09:57:38;;;;;;;;;;;6.30;99.90;;;;;;2136219;67;20234;-80
2022/04/01 10:00:21;;;;;;;;;;;6.40;99.90;;;;;;2144390;66;20237;-80
2022/04/01 10:03:05;;;;;;;;;;;6.50;99.90;;;;;;2137698;66;20070;-83
2022/04/01 10:05:48;;;;;;;;;;;6.70;99.90;;;;;;2139526;67;20064;-81
2022/04/01 10:08:30;;;;;;;;;;;6.60;99.90;;;;;;2134566;67;20105;-83
2022/04/01 10:11:12;;;;;;;;;;;6.80;99.90;;;;;;2120385;67;20069;-83
2022/04/01 10:13:53;;;;;;;;;;;6.90;99.90;;;;;;2123267;67;20116;-85
2022/04/01 10:16:44;;;;;;;;;;;7.30;99.90;;;;;;2119713;67;20065;-82
2022/04/01 10:19:29;;;;;;;;;;;7.30;99.90;;;;;;2127265;67;20074;-81
2022/04/01 10:22:16;;;;;;;;;;;7.30;99.90;;;;;;2114113;67;20138;-87
2022/04/01 10:25:16;;;;;;;;;;;7.50;99.90;;;;;;2119435;67;20156;-85
2022/04/01 10:27:54;;;;;;;;;;;7.60;97.00;;;;;;2113659;67;20206;-84
2022/04/01 10:30:35;;;;;;;;;;;7.40;94.50;;;;;;2105828;68;20621;-83
2022/04/01 10:33:20;;;;;;;;;;;7.40;95.70;;;;;;2105629;67;20119;-82
2022/04/01 10:35:59;;;;;;;;;;;7.30;90.60;;;;;;2113565;67;20542;-81
2022/04/01 10:38:41;;;;;;;;;;;7.40;97.10;;;;;;2117568;67;20077;-82
2022/04/01 10:41:19;;;;;;;;;;;7.70;98.50;;;;;;2134941;67;20067;-83
2022/04/01 10:43:58;;;;;;;;;;;7.90;98.70;;;;;;2142788;67;20140;-81
2022/04/01 10:46:28;;;;;;;;;;;8.20;97.30;;;;;;2146466;66;20135;-81
2022/04/01 10:52:21;;;;;;;;;;;8.50;99.10;;;;;;2167461;65;20071;-83
2022/04/01 10:55:03;;;;;;;;;;;8.70;99.80;;;;;;2188687;65;20051;-82
2022/04/01 10:57:41;;;;;;;;;;;8.80;99.30;;;;;;2208919;65;20053;-82
2022/04/01 11:00:18;;;;;;;;;;;8.70;93.00;;;;;;2210814;64;20055;-82
2022/04/01 11:03:14;;;;;;;;;;;8.60;96.40;;;;;;2218580;64;20225;-79
2022/04/01 11:05:43;;;;;;;;;;;8.80;97.90;;;;;;2219667;64;20111;-83
2022/04/01 11:08:51;;;;;;;;;;;8.80;98.70;;;;;;2209661;65;20680;-81
2022/04/01 11:12:01;;;;;;;;;;;8.80;98.90;;;;;;2202526;65;20061;-78
2022/04/01 11:17:41;;;;;;;;;;;8.60;99.70;;;;;;2199224;65;20635;-81
2022/04/01 11:20:35;;;;;;;;;;;8.90;97.90;;;;;;2197808;65;20066;-86
2022/04/01 11:23:14;;;;;;;;;;;9.00;99.40;;;;;;2206707;65;20227;-78
2022/04/01 11:25:57;;;;;;;;;;;9.20;98.80;;;;;;2204143;64;20281;-78
2022/04/01 11:28:45;;;;;;;;;;;9.30;97.30;;;;;;2194492;65;20088;-79
2022/04/01 11:31:29;;;;;;;;;;;9.40;97.80;;;;;;2194426;65;20243;-81
2022/04/01 11:34:12;;;;;;;;;;;9.50;98.20;;;;;;2181465;65;20666;-80
2022/04/01 11:37:02;;;;;;;;;;;9.70;96.90;;;;;;2162062;66;20076;-79
2022/04/01 11:39:44;;;;;;;;;;;9.80;94.90;;;;;;2154484;66;20138;-80
2022/04/01 11:42:27;;;;;;;;;;;10.00;96.10;;;;;;2149975;66;20179;-79
2022/04/01 11:45:12;;;;;;;;;;;10.30;87.10;;;;;;2146997;66;20222;-81
2022/04/01 11:47:56;;;;;;;;;;;10.20;73.00;;;;;;2145079;66;20208;-81
2022/04/01 11:50:31;;;;;;;;;;;10.10;73.50;;;;;;2145699;66;20190;-80
2022/04/01 11:53:19;;;;;;;;;;;9.90;69.30;;;;;;2140128;66;20116;-80
2022/04/01 11:55:59;;;;;;;;;;;9.60;68.90;;;;;;2140373;67;20199;-86
2022/04/01 11:58:46;;;;;;;;;;;9.50;68.40;;;;;;2143938;66;20087;-80
2022/04/01 12:01:24;;;;;;;;;;;9.40;69.20;;;;;;2148277;66;20737;-81
2022/04/01 12:04:15;;;;;;;;;;;9.30;74.30;;;;;;2141575;66;20219;-81
2022/04/01 12:09:45;;;;;;;;;;;8.70;72.30;;;;;;2151899;66;20050;-80
2022/04/01 12:12:12;;;;;;;;;;;8.60;71.30;;;;;;2159720;66;20137;-80
2022/04/01 12:14:47;;;;;;;;;;;8.50;72.00;;;;;;2165632;66;20499;-81
2022/04/01 12:17:27;;;;;;;;;;;8.40;69.20;;;;;;2180118;65;20696;-80
2022/04/01 12:20:10;;;;;;;;;;;8.90;70.00;;;;;;2194633;65;20802;-81
2022/04/01 12:22:51;;;;;;;;;;;8.30;74.80;;;;;;2195138;65;20078;-81
2022/04/01 12:25:30;;;;;;;;;;;8.30;74.30;;;;;;2193176;65;20062;-81
2022/04/01 12:28:13;;;;;;;;;;;8.20;78.00;;;;;;2194825;65;20215;-80
2022/04/01 12:30:59;;;;;;;;;;;8.20;75.50;;;;;;2198333;65;20078;-80
2022/04/01 12:33:49;;;;;;;;;;;8.60;76.30;;;;;;2188220;65;20086;-80
2022/04/01 12:36:42;;;;;;;;;;;7.80;75.40;;;;;;2178803;65;20173;-80
2022/04/01 12:39:13;;;;;;;;;;;7.60;77.70;;;;;;2173135;65;20072;-84
2022/04/01 12:41:53;;;;;;;;;;;7.60;76.20;;;;;;2176882;65;20069;-81
2022/04/01 12:44:30;;;;;;;;;;;7.80;76.90;;;;;;2177631;65;20185;-80
2022/04/01 12:47:07;;;;;;;;;;;8.00;75.40;;;;;;2183544;65;20632;-80
2022/04/01 12:49:45;;;;;;;;;;;8.10;76.20;;;;;;2185763;65;20076;-80
2022/04/01 12:52:29;;;;;;;;;;;8.30;77.00;;;;;;2192400;65;20046;-80
2022/04/01 12:55:23;;;;;;;;;;;8.50;77.20;;;;;;2191485;65;20524;-81
2022/04/01 12:58:06;;;;;;;;;;;8.30;74.90;;;;;;2171459;66;20281;-81
2022/04/01 13:00:49;;;;;;;;;;;8.30;76.50;;;;;;2171332;66;20630;-81
2022/04/01 13:03:31;;;;;;;;;;;8.50;76.70;;;;;;2168924;66;20183;-83
2022/04/01 13:06:10;;;;;;;;;;;8.60;74.30;;;;;;2165648;66;20259;-84
2022/04/01 13:08:43;;;;;;;;;;;8.90;75.70;;;;;;2155747;66;20070;-79
2022/04/01 13:11:14;;;;;;;;;;;9.10;74.90;;;;;;2157111;66;20530;-83
2022/04/01 13:13:52;;;;;;;;;;;9.70;72.20;;;;;;2162842;66;20473;-80
2022/04/01 13:16:43;;;;;;;;;;;9.10;74.70;;;;;;2164854;66;20186;-81
2022/04/01 13:19:32;;;;;;;;;;;9.10;73.20;;;;;;2169265;66;20060;-80
2022/04/01 13:22:26;;;;;;;;;;;9.20;73.50;;;;;;2163798;66;20489;-83
2022/04/01 13:25:16;;;;;;;;;;;9.30;71.00;;;;;;2147952;66;20199;-84
2022/04/01 13:27:58;;;;;;;;;;;9.40;67.60;;;;;;2141047;66;20612;-80
2022/04/01 13:30:36;;;;;;;;;;;9.30;66.90;;;;;;2155200;66;20235;-83
2022/04/01 13:33:17;;;;;;;;;;;9.20;68.80;;;;;;2162813;66;20080;-82
2022/04/01 13:35:54;;;;;;;;;;;9.10;69.20;;;;;;2163093;66;20202;-83
2022/04/01 13:38:30;;;;;;;;;;;9.20;68.40;;;;;;2166965;66;20122;-84
2022/04/01 13:41:20;;;;;;;;;;;9.10;71.60;;;;;;2167170;66;20092;-86
2022/04/01 13:43:58;;;;;;;;;;;9.00;70.70;;;;;;2185033;65;20198;-84
2022/04/01 13:46:31;;;;;;;;;;;9.20;67.90;;;;;;2203969;64;20189;-80
2022/04/01 13:49:09;;;;;;;;;;;9.30;69.50;;;;;;2220852;64;20066;-80
2022/04/01 13:51:46;;;;;;;;;;;9.30;68.00;;;;;;2215439;64;20071;-81
2022/04/01 13:54:41;;;;;;;;;;;9.40;70.10;;;;;;2215387;64;20053;-81
2022/04/01 13:57:12;;;;;;;;;;;9.30;67.40;;;;;;2201451;65;20162;-82
2022/04/01 14:00:03;;;;;;;;;;;9.20;65.80;;;;;;2191172;65;20164;-84
2022/04/01 14:02:53;;;;;;;;;;;8.90;64.60;;;;;;2196381;65;20137;-87
2022/04/01 14:05:38;;;;;;;;;;;8.60;67.20;;;;;;2205852;65;20086;-86
2022/04/01 14:08:20;;;;;;;;;;;8.60;69.20;;;;;;2187044;65;20196;-84
2022/04/01 14:11:04;;;;;;;;;;;8.60;70.20;;;;;;2181603;65;20123;-85
2022/04/01 14:13:48;;;;;;;;;;;7.80;68.80;;;;;;2169534;66;20225;-80
2022/04/01 14:16:30;;;;;;;;;;;8.70;69.00;;;;;;2154888;66;20046;-83
2022/04/01 14:19:12;;;;;;;;;;;8.70;67.50;;;;;;2161325;66;20084;-86
2022/04/01 14:21:53;;;;;;;;;;;8.70;67.90;;;;;;2164348;66;20654;-87
2022/04/01 14:24:35;;;;;;;;;;;8.60;65.30;;;;;;2150588;66;20065;-85
2022/04/01 14:27:21;;;;;;;;;;;8.50;67.00;;;;;;2143584;67;20118;-82
2022/04/01 14:30:18;;;;;;;;;;;8.40;67.30;;;;;;2142124;67;20145;-85
2022/04/01 14:33:01;;;;;;;;;;;8.10;65.80;;;;;;2136131;67;20201;-83
2022/04/01 14:35:47;;;;;;;;;;;7.80;67.10;;;;;;2119638;67;20112;-80
2022/04/01 14:38:24;;;;;;;;;;;7.50;65.90;;;;;;2120456;67;20077;-82
2022/04/01 14:41:01;;;;;;;;;;;7.40;66.60;;;;;;2123522;67;20303;-84
2022/04/01 14:43:40;;;;;;;;;;;7.30;68.60;;;;;;2121440;67;20194;-80
2022/04/01 14:46:33;;;;;;;;;;;7.30;66.70;;;;;;2111143;67;20704;-83
2022/04/01 14:49:11;;;;;;;;;;;6.90;68.20;;;;;;2119575;67;20102;-86
2022/04/01 14:51:43;;;;;;;;;;;7.60;69.70;;;;;;2126146;67;20094;-82
2022/04/01 14:54:15;;;;;;;;;;;7.30;69.90;;;;;;2126842;67;20098;-82
2022/04/01 14:56:43;;;;;;;;;;;7.20;67.40;;;;;;2149470;66;20092;-83
2022/04/01 14:59:33;;;;;;;;;;;7.20;70.30;;;;;;2155820;66;20081;-87
2022/04/01 15:02:22;;;;;;;;;;;7.20;68.80;;;;;;2155726;66;20126;-81
2022/04/01 15:04:59;;;;;;;;;;;7.10;67.60;;;;;;2172631;65;20089;-85
2022/04/01 15:07:35;;;;;;;;;;;7.10;68.50;;;;;;2181957;65;20067;-84
2022/04/01 15:10:04;;;;;;;;;;;7.00;67.50;;;;;;2185655;65;20093;-86
2022/04/01 15:12:41;;;;;;;;;;;6.90;68.30;;;;;;2179802;65;20204;-81
2022/04/01 15:15:20;;;;;;;;;;;7.20;67.40;;;;;;2188509;65;20070;-81
2022/04/01 15:17:58;;;;;;;;;;;6.80;68.30;;;;;;2188162;65;20567;-81
2022/04/01 15:20:31;;;;;;;;;;;7.30;68.80;;;;;;2199671;65;20058;-83
2022/04/01 15:23:21;;;;;;;;;;;6.70;67.20;;;;;;2204649;64;20066;-82
2022/04/01 15:25:57;;;;;;;;;;;6.70;67.10;;;;;;2224238;64;20095;-83
2022/04/01 15:28:37;;;;;;;;;;;6.70;68.10;;;;;;2224644;64;20099;-85
2022/04/01 15:31:26;;;;;;;;;;;6.70;69.80;;;;;;2225349;64;20055;-83
2022/04/01 15:34:02;;;;;;;;;;;6.70;67.50;;;;;;2224285;64;20067;-85
2022/04/01 15:36:33;;;;;;;;;;;6.60;69.50;;;;;;2217890;64;20412;-86
2022/04/01 15:39:16;;;;;;;;;;;6.60;70.20;;;;;;2202662;65;20214;-84
2022/04/01 15:42:01;;;;;;;;;;;6.60;70.70;;;;;;2179673;65;20079;-85
2022/04/01 15:44:46;;;;;;;;;;;6.60;71.70;;;;;;2171524;65;20099;-78
2022/04/01 15:47:34;;;;;;;;;;;6.60;68.10;;;;;;2170069;65;20516;-84
2022/04/01 15:50:19;;;;;;;;;;;6.50;67.30;;;;;;2163208;66;20149;-85
2022/04/01 15:53:06;;;;;;;;;;;6.50;68.20;;;;;;2155218;66;20673;-86
2022/04/01 15:55:47;;;;;;;;;;;6.50;68.70;;;;;;2135400;67;20629;-86
2022/04/01 15:58:29;;;;;;;;;;;6.40;69.20;;;;;;2148880;66;20090;-87
2022/04/01 16:01:14;;;;;;;;;;;6.40;67.60;;;;;;2150147;66;20190;-86
2022/04/01 16:04:00;;;;;;;;;;;6.60;69.10;;;;;;2151048;66;20050;-87
2022/04/01 16:06:45;;;;;;;;;;;6.30;68.50;;;;;;2138647;67;20051;-85
2022/04/01 16:09:35;;;;;;;;;;;6.40;71.90;;;;;;2137370;66;20567;-83